sensor_id;sensor_type;location;lat;lon;timestamp;pressure;altitude;pressure_sealevel;temperature;humidity
47897;BME280;39629;51.400;5.494;2022-08-21T00:00:37;101577.25;;;13.95;99.30
47897;BME280;39629;51.400;5.494;2022-08-21T00:05:41;101567.50;;;13.96;98.50
47897;BME280;39629;51.400;5.494;2022-08-21T00:10:44;101574.94;;;13.81;99.08
47897;BME280;39629;51.400;5.494;2022-08-21T00:15:48;101568.63;;;13.93;98.58
47897;BME280;39629;51.400;5.494;2022-08-21T00:20:50;101572.03;;;13.73;98.75
47897;BME280;39629;51.400;5.494;2022-08-21T00:25:51;101566.84;;;13.50;100.00
47897;BME280;39629;51.400;5.494;2022-08-21T00:30:54;101567.72;;;13.51;100.00
47897;BME280;39629;51.400;5.494;2022-08-21T00:35:57;101560.06;;;13.69;99.33
47897;BME280;39629;51.400;5.494;2022-08-21T00:41:01;101559.88;;;13.82;99.29
47897;BME280;39629;51.400;5.494;2022-08-21T00:46:05;101552.59;;;13.74;100.00
47897;BME280;39629;51.400;5.494;2022-08-21T00:51:08;101549.78;;;13.87;98.83
47897;BME280;39629;51.400;5.494;2022-08-21T00:56:12;101547.06;;;13.77;98.84
47897;BME280;39629;51.400;5.494;2022-08-21T01:01:16;101549.72;;;13.66;99.12
47897;BME280;39629;51.400;5.494;2022-08-21T01:06:17;101552.63;;;13.63;99.70
47897;BME280;39629;51.400;5.494;2022-08-21T01:11:20;101554.03;;;13.67;100.00
47897;BME280;39629;51.400;5.494;2022-08-21T01:16:23;101558.69;;;13.53;98.91
47897;BME280;39629;51.400;5.494;2022-08-21T01:21:27;101553.91;;;13.36;99.65
47897;BME280;39629;51.400;5.494;2022-08-21T01:26:32;101550.03;;;13.51;98.89
47897;BME280;39629;51.400;5.494;2022-08-21T01:31:34;101556.19;;;13.41;96.74
47897;BME280;39629;51.400;5.494;2022-08-21T01:36:38;101544.81;;;12.40;99.40
47897;BME280;39629;51.400;5.494;2022-08-21T01:41:40;101543.56;;;12.33;100.00
47897;BME280;39629;51.400;5.494;2022-08-21T01:46:42;101537.50;;;12.55;99.71
47897;BME280;39629;51.400;5.494;2022-08-21T01:51:45;101542.66;;;12.68;100.00
47897;BME280;39629;51.400;5.494;2022-08-21T01:56:48;101533.84;;;12.90;100.00
47897;BME280;39629;51.400;5.494;2022-08-21T02:01:51;101533.59;;;13.04;100.00
47897;BME280;39629;51.400;5.494;2022-08-21T02:06:55;101526.28;;;12.97;100.00
47897;BME280;39629;51.400;5.494;2022-08-21T02:11:57;101522.72;;;12.41;100.00
47897;BME280;39629;51.400;5.494;2022-08-21T02:16:59;101520.56;;;12.35;100.00
47897;BME280;39629;51.400;5.494;2022-08-21T02:22:03;101522.63;;;12.43;98.54
47897;BME280;39629;51.400;5.494;2022-08-21T02:27:04;101520.47;;;12.37;98.93
47897;BME280;39629;51.400;5.494;2022-08-21T02:32:06;101521.66;;;12.55;99.86
47897;BME280;39629;51.400;5.494;2022-08-21T02:37:09;101517.44;;;12.53;100.00
47897;BME280;39629;51.400;5.494;2022-08-21T02:42:13;101512.06;;;12.65;100.00
47897;BME280;39629;51.400;5.494;2022-08-21T02:47:14;101525.59;;;12.72;99.63
47897;BME280;39629;51.400;5.494;2022-08-21T02:52:17;101520.91;;;12.64;99.17
47897;BME280;39629;51.400;5.494;2022-08-21T02:57:19;101523.81;;;12.61;98.93
47897;BME280;39629;51.400;5.494;2022-08-21T03:02:20;101518.41;;;12.52;98.90
47897;BME280;39629;51.400;5.494;2022-08-21T03:07:24;101514.69;;;12.65;99.67
47897;BME280;39629;51.400;5.494;2022-08-21T03:12:25;101517.34;;;12.65;100.00
47897;BME280;39629;51.400;5.494;2022-08-21T03:17:27;101518.03;;;12.79;100.00
47897;BME280;39629;51.400;5.494;2022-08-21T03:22:30;101512.50;;;12.71;100.00
47897;BME280;39629;51.400;5.494;2022-08-21T03:27:32;101509.88;;;12.71;100.00
47897;BME280;39629;51.400;5.494;2022-08-21T03:32:34;101513.00;;;12.64;100.00
47897;BME280;39629;51.400;5.494;2022-08-21T03:37:38;101499.22;;;12.61;100.00
47897;BME280;39629;51.400;5.494;2022-08-21T03:42:40;101513.63;;;12.57;100.00
47897;BME280;39629;51.400;5.494;2022-08-21T03:47:51;101509.53;;;12.64;100.00
47897;BME280;39629;51.400;5.494;2022-08-21T03:52:54;101512.50;;;12.59;100.00
47897;BME280;39629;51.400;5.494;2022-08-21T03:57:55;101513.25;;;12.61;100.00
47897;BME280;39629;51.400;5.494;2022-08-21T04:02:57;101508.22;;;12.58;100.00
47897;BME280;39629;51.400;5.494;2022-08-21T04:08:02;101501.81;;;12.27;100.00
47897;BME280;39629;51.400;5.494;2022-08-21T04:13:05;101510.44;;;12.07;99.87
47897;BME280;39629;51.400;5.494;2022-08-21T04:18:07;101515.81;;;12.05;100.00
47897;BME280;39629;51.400;5.494;2022-08-21T04:23:10;101503.50;;;12.17;100.00
47897;BME280;39629;51.400;5.494;2022-08-21T04:28:12;101509.25;;;12.22;100.00
47897;BME280;39629;51.400;5.494;2022-08-21T04:33:14;101513.97;;;12.41;100.00
47897;BME280;39629;51.400;5.494;2022-08-21T04:38:17;101522.88;;;12.51;100.00
47897;BME280;39629;51.400;5.494;2022-08-21T04:43:19;101520.22;;;12.51;100.00
47897;BME280;39629;51.400;5.494;2022-08-21T04:48:22;101527.41;;;12.49;100.00
47897;BME280;39629;51.400;5.494;2022-08-21T04:53:34;101529.47;;;12.57;100.00
47897;BME280;39629;51.400;5.494;2022-08-21T04:58:38;101527.75;;;12.67;100.00
47897;BME280;39629;51.400;5.494;2022-08-21T05:03:40;101541.53;;;12.82;100.00
47897;BME280;39629;51.400;5.494;2022-08-21T05:08:47;101535.16;;;12.96;100.00
47897;BME280;39629;51.400;5.494;2022-08-21T05:13:50;101529.28;;;13.03;100.00
47897;BME280;39629;51.400;5.494;2022-08-21T05:18:51;101530.00;;;13.05;100.00
47897;BME280;39629;51.400;5.494;2022-08-21T05:23:54;101545.09;;;13.15;100.00
47897;BME280;39629;51.400;5.494;2022-08-21T05:28:56;101541.97;;;13.53;100.00
47897;BME280;39629;51.400;5.494;2022-08-21T05:33:58;101542.66;;;13.87;100.00
47897;BME280;39629;51.400;5.494;2022-08-21T05:39:01;101539.19;;;14.69;100.00
47897;BME280;39629;51.400;5.494;2022-08-21T05:44:03;101540.75;;;15.31;98.87
47897;BME280;39629;51.400;5.494;2022-08-21T05:49:05;101548.53;;;16.11;95.57
47897;BME280;39629;51.400;5.494;2022-08-21T05:54:08;101547.94;;;16.74;93.68
47897;BME280;39629;51.400;5.494;2022-08-21T05:59:10;101557.34;;;17.13;91.01
47897;BME280;39629;51.400;5.494;2022-08-21T06:04:13;101558.41;;;17.66;88.66
47897;BME280;39629;51.400;5.494;2022-08-21T06:09:16;101554.22;;;18.08;87.13
47897;BME280;39629;51.400;5.494;2022-08-21T06:14:18;101557.63;;;18.44;84.61
47897;BME280;39629;51.400;5.494;2022-08-21T06:19:19;101549.63;;;18.78;83.18
47897;BME280;39629;51.400;5.494;2022-08-21T06:24:22;101552.25;;;18.70;82.73
47897;BME280;39629;51.400;5.494;2022-08-21T06:29:24;101557.81;;;18.85;81.07
47897;BME280;39629;51.400;5.494;2022-08-21T06:34:26;101549.31;;;19.40;79.87
47897;BME280;39629;51.400;5.494;2022-08-21T06:39:29;101555.19;;;19.60;80.39
47897;BME280;39629;51.400;5.494;2022-08-21T06:44:30;101550.81;;;19.67;80.73
47897;BME280;39629;51.400;5.494;2022-08-21T06:49:32;101550.97;;;19.90;79.34
47897;BME280;39629;51.400;5.494;2022-08-21T06:54:35;101546.78;;;20.37;77.22
47897;BME280;39629;51.400;5.494;2022-08-21T06:59:37;101548.13;;;20.72;76.90
47897;BME280;39629;51.400;5.494;2022-08-21T07:04:38;101551.88;;;20.94;75.83
47897;BME280;39629;51.400;5.494;2022-08-21T07:09:41;101552.53;;;21.27;75.02
47897;BME280;39629;51.400;5.494;2022-08-21T07:14:43;101547.72;;;21.46;74.52
47897;BME280;39629;51.400;5.494;2022-08-21T07:19:45;101540.91;;;21.81;71.66
47897;BME280;39629;51.400;5.494;2022-08-21T07:24:48;101543.31;;;22.43;71.23
47897;BME280;39629;51.400;5.494;2022-08-21T07:29:49;101549.97;;;22.18;71.80
47897;BME280;39629;51.400;5.494;2022-08-21T07:34:51;101541.66;;;22.57;72.65
47897;BME280;39629;51.400;5.494;2022-08-21T07:39:54;101552.34;;;22.13;74.76
47897;BME280;39629;51.400;5.494;2022-08-21T07:44:56;101550.69;;;22.26;73.65
47897;BME280;39629;51.400;5.494;2022-08-21T07:49:57;101545.78;;;22.00;73.42
47897;BME280;39629;51.400;5.494;2022-08-21T07:55:00;101541.81;;;22.56;72.22
47897;BME280;39629;51.400;5.494;2022-08-21T08:00:03;101536.94;;;23.32;69.94
47897;BME280;39629;51.400;5.494;2022-08-21T08:05:12;101539.69;;;22.81;72.71
47897;BME280;39629;51.400;5.494;2022-08-21T08:10:16;101531.59;;;23.10;70.28
47897;BME280;39629;51.400;5.494;2022-08-21T08:15:20;101538.13;;;23.94;68.72
47897;BME280;39629;51.400;5.494;2022-08-21T08:20:22;101540.72;;;23.37;69.77
47897;BME280;39629;51.400;5.494;2022-08-21T08:25:27;101539.50;;;23.83;67.86
47897;BME280;39629;51.400;5.494;2022-08-21T08:30:28;101537.31;;;24.21;65.95
47897;BME280;39629;51.400;5.494;2022-08-21T08:35:30;101543.22;;;24.10;64.77
47897;BME280;39629;51.400;5.494;2022-08-21T08:40:38;101527.84;;;24.80;63.57
47897;BME280;39629;51.400;5.494;2022-08-21T08:45:46;101528.41;;;25.17;62.04
47897;BME280;39629;51.400;5.494;2022-08-21T08:50:54;101518.25;;;25.12;62.84
47897;BME280;39629;51.400;5.494;2022-08-21T08:56:00;101509.44;;;24.29;63.91
47897;BME280;39629;51.400;5.494;2022-08-21T09:01:05;101502.53;;;25.23;61.44
47897;BME280;39629;51.400;5.494;2022-08-21T09:06:21;101505.06;;;25.64;59.45
47897;BME280;39629;51.400;5.494;2022-08-21T09:11:29;101499.41;;;24.51;60.20
47897;BME280;39629;51.400;5.494;2022-08-21T09:16:39;101497.44;;;24.32;63.88
47897;BME280;39629;51.400;5.494;2022-08-21T09:21:52;101500.94;;;24.80;60.44
47897;BME280;39629;51.400;5.494;2022-08-21T09:27:02;101499.34;;;24.92;58.86
47897;BME280;39629;51.400;5.494;2022-08-21T09:32:21;101496.72;;;25.99;56.88
47897;BME280;39629;51.400;5.494;2022-08-21T09:37:23;101504.84;;;25.92;57.28
47897;BME280;39629;51.400;5.494;2022-08-21T09:42:28;101510.91;;;26.52;53.32
47897;BME280;39629;51.400;5.494;2022-08-21T09:47:32;101505.84;;;25.51;57.72
47897;BME280;39629;51.400;5.494;2022-08-21T09:52:34;101510.03;;;25.87;56.26
47897;BME280;39629;51.400;5.494;2022-08-21T09:57:37;101500.16;;;26.39;53.85
47897;BME280;39629;51.400;5.494;2022-08-21T10:02:46;101497.53;;;26.78;52.59
47897;BME280;39629;51.400;5.494;2022-08-21T10:07:48;101494.03;;;27.09;53.08
47897;BME280;39629;51.400;5.494;2022-08-21T10:12:58;101486.81;;;27.28;51.69
47897;BME280;39629;51.400;5.494;2022-08-21T10:18:10;101479.63;;;28.34;49.48
47897;BME280;39629;51.400;5.494;2022-08-21T10:23:29;101490.09;;;26.60;51.26
47897;BME280;39629;51.400;5.494;2022-08-21T10:28:39;101489.09;;;26.61;50.30
47897;BME280;39629;51.400;5.494;2022-08-21T10:33:46;101489.63;;;26.76;51.51
47897;BME280;39629;51.400;5.494;2022-08-21T10:39:03;101486.31;;;26.74;50.80
47897;BME280;39629;51.400;5.494;2022-08-21T10:44:17;101489.97;;;26.48;49.63
47897;BME280;39629;51.400;5.494;2022-08-21T10:49:32;101488.41;;;27.10;50.22
47897;BME280;39629;51.400;5.494;2022-08-21T10:54:41;101484.97;;;27.28;46.31
47897;BME280;39629;51.400;5.494;2022-08-21T10:59:54;101492.88;;;26.91;49.70
47897;BME280;39629;51.400;5.494;2022-08-21T11:05:01;101481.13;;;27.11;48.83
47897;BME280;39629;51.400;5.494;2022-08-21T11:10:10;101480.38;;;26.97;48.95
47897;BME280;39629;51.400;5.494;2022-08-21T11:15:27;101482.63;;;26.68;50.25
47897;BME280;39629;51.400;5.494;2022-08-21T11:20:34;101478.34;;;27.24;47.13
47897;BME280;39629;51.400;5.494;2022-08-21T11:25:40;101474.22;;;27.65;48.06
47897;BME280;39629;51.400;5.494;2022-08-21T11:30:50;101471.81;;;27.82;46.00
47897;BME280;39629;51.400;5.494;2022-08-21T11:35:58;101460.78;;;28.39;45.97
47897;BME280;39629;51.400;5.494;2022-08-21T11:41:18;101461.81;;;28.86;45.58
47897;BME280;39629;51.400;5.494;2022-08-21T11:46:31;101459.13;;;28.01;43.66
47897;BME280;39629;51.400;5.494;2022-08-21T11:51:39;101470.41;;;28.83;44.26
47897;BME280;39629;51.400;5.494;2022-08-21T11:56:45;101477.34;;;27.44;43.12
47897;BME280;39629;51.400;5.494;2022-08-21T12:01:51;101478.22;;;29.45;41.58
47897;BME280;39629;51.400;5.494;2022-08-21T12:06:54;101474.13;;;26.96;42.46
47897;BME280;39629;51.400;5.494;2022-08-21T12:12:03;101475.59;;;28.18;46.03
47897;BME280;39629;51.400;5.494;2022-08-21T12:17:07;101474.06;;;27.10;43.35
47897;BME280;39629;51.400;5.494;2022-08-21T12:22:12;101473.81;;;27.18;43.89
47897;BME280;39629;51.400;5.494;2022-08-21T12:27:26;101478.66;;;27.59;45.62
47897;BME280;39629;51.400;5.494;2022-08-21T12:32:43;101475.44;;;27.94;42.37
47897;BME280;39629;51.400;5.494;2022-08-21T12:37:50;101466.53;;;27.44;45.05
47897;BME280;39629;51.400;5.494;2022-08-21T12:42:55;101477.31;;;28.49;42.83
47897;BME280;39629;51.400;5.494;2022-08-21T12:48:04;101469.97;;;28.38;42.55
47897;BME280;39629;51.400;5.494;2022-08-21T12:53:12;101467.63;;;28.41;42.31
47897;BME280;39629;51.400;5.494;2022-08-21T12:58:18;101470.25;;;28.96;40.26
47897;BME280;39629;51.400;5.494;2022-08-21T13:03:22;101463.66;;;29.04;38.56
47897;BME280;39629;51.400;5.494;2022-08-21T13:08:26;101463.75;;;29.75;41.14
47897;BME280;39629;51.400;5.494;2022-08-21T13:13:28;101466.25;;;28.99;40.48
47897;BME280;39629;51.400;5.494;2022-08-21T13:18:33;101466.94;;;28.94;37.80
47897;BME280;39629;51.400;5.494;2022-08-21T13:23:35;101459.94;;;29.40;37.14
47897;BME280;39629;51.400;5.494;2022-08-21T13:28:36;101468.66;;;28.59;37.54
47897;BME280;39629;51.400;5.494;2022-08-21T13:33:40;101467.69;;;29.13;39.30
47897;BME280;39629;51.400;5.494;2022-08-21T13:38:44;101467.16;;;28.93;41.39
47897;BME280;39629;51.400;5.494;2022-08-21T13:43:50;101464.31;;;28.88;39.20
47897;BME280;39629;51.400;5.494;2022-08-21T13:48:53;101459.91;;;29.05;38.33
47897;BME280;39629;51.400;5.494;2022-08-21T13:53:55;101460.06;;;29.34;38.27
47897;BME280;39629;51.400;5.494;2022-08-21T13:58:58;101457.25;;;29.64;37.23
47897;BME280;39629;51.400;5.494;2022-08-21T14:04:04;101453.06;;;30.08;36.55
47897;BME280;39629;51.400;5.494;2022-08-21T14:09:11;101455.72;;;29.80;37.62
47897;BME280;39629;51.400;5.494;2022-08-21T14:14:18;101441.94;;;29.70;37.89
47897;BME280;39629;51.400;5.494;2022-08-21T14:19:25;101436.38;;;29.88;35.71
47897;BME280;39629;51.400;5.494;2022-08-21T14:24:29;101434.84;;;29.80;35.55
47897;BME280;39629;51.400;5.494;2022-08-21T14:29:34;101433.44;;;29.66;35.85
47897;BME280;39629;51.400;5.494;2022-08-21T14:34:37;101434.72;;;29.40;37.20
47897;BME280;39629;51.400;5.494;2022-08-21T14:39:39;101433.16;;;29.20;38.92
47897;BME280;39629;51.400;5.494;2022-08-21T14:44:40;101438.03;;;28.88;38.28
47897;BME280;39629;51.400;5.494;2022-08-21T14:49:43;101439.72;;;29.01;39.23
47897;BME280;39629;51.400;5.494;2022-08-21T14:54:45;101432.16;;;28.61;39.27
47897;BME280;39629;51.400;5.494;2022-08-21T14:59:46;101439.00;;;27.78;39.11
47897;BME280;39629;51.400;5.494;2022-08-21T15:04:49;101429.88;;;28.46;40.21
47897;BME280;39629;51.400;5.494;2022-08-21T15:09:51;101437.78;;;28.48;39.48
47897;BME280;39629;51.400;5.494;2022-08-21T15:14:53;101436.81;;;28.42;40.23
47897;BME280;39629;51.400;5.494;2022-08-21T15:19:56;101434.25;;;28.11;38.70
47897;BME280;39629;51.400;5.494;2022-08-21T15:24:57;101426.56;;;28.44;41.91
47897;BME280;39629;51.400;5.494;2022-08-21T15:29:59;101430.41;;;28.18;43.05
47897;BME280;39629;51.400;5.494;2022-08-21T15:35:02;101433.59;;;27.78;40.71
47897;BME280;39629;51.400;5.494;2022-08-21T15:40:05;101443.66;;;27.46;42.86
47897;BME280;39629;51.400;5.494;2022-08-21T15:45:09;101441.16;;;27.70;44.96
47897;BME280;39629;51.400;5.494;2022-08-21T15:50:15;101434.75;;;26.82;44.40
47897;BME280;39629;51.400;5.494;2022-08-21T15:55:17;101441.03;;;27.08;46.69
47897;BME280;39629;51.400;5.494;2022-08-21T16:00:21;101445.00;;;26.35;45.26
47897;BME280;39629;51.400;5.494;2022-08-21T16:05:24;101449.09;;;26.31;45.85
47897;BME280;39629;51.400;5.494;2022-08-21T16:10:26;101431.84;;;26.52;47.04
47897;BME280;39629;51.400;5.494;2022-08-21T16:15:28;101437.81;;;26.02;47.20
47897;BME280;39629;51.400;5.494;2022-08-21T16:20:31;101439.94;;;26.45;46.53
47897;BME280;39629;51.400;5.494;2022-08-21T16:25:34;101441.75;;;26.00;46.58
47897;BME280;39629;51.400;5.494;2022-08-21T16:30:36;101440.91;;;26.13;46.34
47897;BME280;39629;51.400;5.494;2022-08-21T16:35:39;101438.19;;;26.13;49.56
47897;BME280;39629;51.400;5.494;2022-08-21T16:40:40;101431.22;;;25.85;46.44
47897;BME280;39629;51.400;5.494;2022-08-21T16:45:42;101432.47;;;25.62;47.48
47897;BME280;39629;51.400;5.494;2022-08-21T16:50:45;101425.66;;;25.47;47.78
47897;BME280;39629;51.400;5.494;2022-08-21T16:55:47;101431.47;;;25.50;48.88
47897;BME280;39629;51.400;5.494;2022-08-21T17:00:49;101427.72;;;25.31;48.32
47897;BME280;39629;51.400;5.494;2022-08-21T17:05:52;101435.41;;;25.41;49.57
47897;BME280;39629;51.400;5.494;2022-08-21T17:10:54;101428.34;;;25.00;50.15
47897;BME280;39629;51.400;5.494;2022-08-21T17:15:56;101426.81;;;24.64;52.02
47897;BME280;39629;51.400;5.494;2022-08-21T17:20:59;101423.50;;;24.62;51.98
47897;BME280;39629;51.400;5.494;2022-08-21T17:26:01;101426.41;;;24.74;51.34
47897;BME280;39629;51.400;5.494;2022-08-21T17:31:03;101430.09;;;24.60;53.88
47897;BME280;39629;51.400;5.494;2022-08-21T17:36:09;101427.81;;;24.57;51.43
47897;BME280;39629;51.400;5.494;2022-08-21T17:41:12;101438.59;;;24.63;49.88
47897;BME280;39629;51.400;5.494;2022-08-21T17:46:20;101435.25;;;24.48;49.92
47897;BME280;39629;51.400;5.494;2022-08-21T17:51:24;101426.53;;;24.46;50.26
47897;BME280;39629;51.400;5.494;2022-08-21T17:56:29;101437.19;;;23.84;51.09
47897;BME280;39629;51.400;5.494;2022-08-21T18:01:33;101435.63;;;24.03;51.14
47897;BME280;39629;51.400;5.494;2022-08-21T18:06:38;101439.22;;;23.76;52.66
47897;BME280;39629;51.400;5.494;2022-08-21T18:11:41;101434.25;;;23.79;52.74
47897;BME280;39629;51.400;5.494;2022-08-21T18:16:43;101440.53;;;23.58;53.96
47897;BME280;39629;51.400;5.494;2022-08-21T18:21:46;101435.34;;;23.57;53.57
47897;BME280;39629;51.400;5.494;2022-08-21T18:26:48;101446.88;;;23.29;54.69
47897;BME280;39629;51.400;5.494;2022-08-21T18:31:50;101445.22;;;23.07;55.40
47897;BME280;39629;51.400;5.494;2022-08-21T18:36:54;101439.41;;;23.03;55.10
47897;BME280;39629;51.400;5.494;2022-08-21T18:41:57;101442.34;;;23.08;55.83
47897;BME280;39629;51.400;5.494;2022-08-21T18:47:00;101437.16;;;23.07;58.04
47897;BME280;39629;51.400;5.494;2022-08-21T18:52:05;101442.22;;;22.73;56.42
47897;BME280;39629;51.400;5.494;2022-08-21T18:57:07;101450.59;;;22.85;56.19
47897;BME280;39629;51.400;5.494;2022-08-21T19:02:09;101453.78;;;22.74;57.31
47897;BME280;39629;51.400;5.494;2022-08-21T19:07:12;101455.22;;;22.40;57.21
47897;BME280;39629;51.400;5.494;2022-08-21T19:12:18;101459.28;;;22.36;57.53
47897;BME280;39629;51.400;5.494;2022-08-21T19:17:21;101460.03;;;22.30;58.04
47897;BME280;39629;51.400;5.494;2022-08-21T19:22:24;101466.59;;;22.13;58.93
47897;BME280;39629;51.400;5.494;2022-08-21T19:27:26;101476.84;;;22.24;59.36
47897;BME280;39629;51.400;5.494;2022-08-21T19:32:29;101476.59;;;22.19;60.12
47897;BME280;39629;51.400;5.494;2022-08-21T19:37:32;101479.81;;;22.14;60.66
47897;BME280;39629;51.400;5.494;2022-08-21T19:42:34;101479.75;;;22.08;61.44
47897;BME280;39629;51.400;5.494;2022-08-21T19:47:39;101477.31;;;21.98;60.96
47897;BME280;39629;51.400;5.494;2022-08-21T19:52:43;101476.66;;;21.96;62.38
47897;BME280;39629;51.400;5.494;2022-08-21T19:57:45;101477.94;;;21.85;61.67
47897;BME280;39629;51.400;5.494;2022-08-21T20:02:47;101482.75;;;21.90;61.34
47897;BME280;39629;51.400;5.494;2022-08-21T20:07:50;101479.38;;;21.73;63.76
47897;BME280;39629;51.400;5.494;2022-08-21T20:12:51;101482.59;;;21.53;66.09
47897;BME280;39629;51.400;5.494;2022-08-21T20:17:53;101479.97;;;21.45;67.16
47897;BME280;39629;51.400;5.494;2022-08-21T20:22:56;101479.81;;;21.24;67.97
47897;BME280;39629;51.400;5.494;2022-08-21T20:27:58;101485.16;;;21.24;68.06
47897;BME280;39629;51.400;5.494;2022-08-21T20:33:00;101483.81;;;20.97;69.22
47897;BME280;39629;51.400;5.494;2022-08-21T20:38:03;101482.38;;;20.86;70.43
47897;BME280;39629;51.400;5.494;2022-08-21T20:43:06;101476.94;;;20.40;71.42
47897;BME280;39629;51.400;5.494;2022-08-21T20:48:12;101477.44;;;20.35;72.86
47897;BME280;39629;51.400;5.494;2022-08-21T20:53:24;101479.44;;;20.33;73.23
47897;BME280;39629;51.400;5.494;2022-08-21T20:58:33;101475.84;;;19.93;75.08
47897;BME280;39629;51.400;5.494;2022-08-21T21:03:42;101473.19;;;19.85;76.77
47897;BME280;39629;51.400;5.494;2022-08-21T21:08:47;101478.88;;;19.90;77.35
47897;BME280;39629;51.400;5.494;2022-08-21T21:13:52;101474.88;;;19.04;80.58
47897;BME280;39629;51.400;5.494;2022-08-21T21:18:58;101475.75;;;19.54;78.46
47897;BME280;39629;51.400;5.494;2022-08-21T21:24:05;101476.41;;;19.23;80.78
47897;BME280;39629;51.400;5.494;2022-08-21T21:29:12;101476.53;;;18.97;82.20
47897;BME280;39629;51.400;5.494;2022-08-21T21:34:15;101471.19;;;19.05;82.26
47897;BME280;39629;51.400;5.494;2022-08-21T21:39:24;101472.38;;;19.03;83.38
47897;BME280;39629;51.400;5.494;2022-08-21T21:44:40;101477.81;;;18.34;84.38
47897;BME280;39629;51.400;5.494;2022-08-21T21:49:55;101465.53;;;18.41;85.02
47897;BME280;39629;51.400;5.494;2022-08-21T21:55:07;101470.22;;;18.47;84.84
47897;BME280;39629;51.400;5.494;2022-08-21T22:00:16;101478.31;;;18.03;86.26
47897;BME280;39629;51.400;5.494;2022-08-21T22:05:28;101474.84;;;17.85;88.42
47897;BME280;39629;51.400;5.494;2022-08-21T22:10:39;101469.25;;;18.22;85.43
47897;BME280;39629;51.400;5.494;2022-08-21T22:15:43;101472.06;;;18.21;84.99
47897;BME280;39629;51.400;5.494;2022-08-21T22:20:49;101474.84;;;18.37;84.35
47897;BME280;39629;51.400;5.494;2022-08-21T22:25:59;101471.44;;;18.27;84.47
47897;BME280;39629;51.400;5.494;2022-08-21T22:31:15;101479.56;;;18.25;85.73
47897;BME280;39629;51.400;5.494;2022-08-21T22:36:18;101477.41;;;18.21;84.12
47897;BME280;39629;51.400;5.494;2022-08-21T22:41:25;101480.84;;;18.13;86.17
47897;BME280;39629;51.400;5.494;2022-08-21T22:46:30;101465.91;;;17.94;86.25
47897;BME280;39629;51.400;5.494;2022-08-21T22:51:36;101470.41;;;17.68;86.35
47897;BME280;39629;51.400;5.494;2022-08-21T22:56:43;101469.94;;;17.46;88.36
47897;BME280;39629;51.400;5.494;2022-08-21T23:01:53;101469.16;;;17.80;86.98
47897;BME280;39629;51.400;5.494;2022-08-21T23:06:58;101468.41;;;17.44;87.71
47897;BME280;39629;51.400;5.494;2022-08-21T23:12:03;101460.91;;;17.91;86.27
47897;BME280;39629;51.400;5.494;2022-08-21T23:17:07;101465.59;;;17.89;85.66
47897;BME280;39629;51.400;5.494;2022-08-21T23:22:30;101462.88;;;17.63;87.44
47897;BME280;39629;51.400;5.494;2022-08-21T23:27:47;101460.50;;;17.52;87.00
47897;BME280;39629;51.400;5.494;2022-08-21T23:33:19;101465.81;;;17.52;88.63
47897;BME280;39629;51.400;5.494;2022-08-21T23:38:35;101458.28;;;17.47;87.91
47897;BME280;39629;51.400;5.494;2022-08-21T23:43:54;101462.13;;;17.27;89.29
47897;BME280;39629;51.400;5.494;2022-08-21T23:49:07;101464.19;;;17.23;90.06
47897;BME280;39629;51.400;5.494;2022-08-21T23:54:14;101463.16;;;17.16;90.14
47897;BME280;39629;51.400;5.494;2022-08-21T23:59:31;101457.38;;;17.03;91.26
